sensor_id;sensor_type;location;lat;lon;timestamp;P1;durP1;ratioP1;P2;durP2;ratioP2
20443;SDS011;10381;53.730;10.010;2022-08-06T00:03:53;13.60;;;12.25;;
20443;SDS011;10381;53.730;10.010;2022-08-06T00:07:53;13.02;;;11.93;;
20443;SDS011;10381;53.730;10.010;2022-08-06T00:11:57;14.30;;;12.82;;
20443;SDS011;10381;53.730;10.010;2022-08-06T00:15:59;19.70;;;12.70;;
20443;SDS011;10381;53.730;10.010;2022-08-06T00:19:59;15.90;;;13.30;;
20443;SDS011;10381;53.730;10.010;2022-08-06T00:23:59;13.52;;;12.18;;
20443;SDS011;10381;53.730;10.010;2022-08-06T00:28:00;12.23;;;11.03;;
20443;SDS011;10381;53.730;10.010;2022-08-06T00:32:00;11.87;;;10.97;;
20443;SDS011;10381;53.730;10.010;2022-08-06T00:36:00;11.65;;;10.65;;
20443;SDS011;10381;53.730;10.010;2022-08-06T00:40:02;12.82;;;11.30;;
20443;SDS011;10381;53.730;10.010;2022-08-06T00:44:03;12.88;;;11.63;;
20443;SDS011;10381;53.730;10.010;2022-08-06T00:48:03;12.52;;;11.45;;
20443;SDS011;10381;53.730;10.010;2022-08-06T00:52:04;12.23;;;10.93;;
20443;SDS011;10381;53.730;10.010;2022-08-06T00:56:04;12.45;;;11.25;;
20443;SDS011;10381;53.730;10.010;2022-08-06T01:00:06;12.70;;;11.40;;
20443;SDS011;10381;53.730;10.010;2022-08-06T01:04:07;13.10;;;11.63;;
20443;SDS011;10381;53.730;10.010;2022-08-06T01:08:08;15.57;;;12.03;;
20443;SDS011;10381;53.730;10.010;2022-08-06T01:12:08;14.00;;;12.63;;
20443;SDS011;10381;53.730;10.010;2022-08-06T01:16:17;14.10;;;12.75;;
20443;SDS011;10381;53.730;10.010;2022-08-06T01:29:22;12.63;;;11.50;;
20443;SDS011;10381;53.730;10.010;2022-08-06T01:33:30;15.10;;;11.93;;
20443;SDS011;10381;53.730;10.010;2022-08-06T01:37:45;12.77;;;11.73;;
20443;SDS011;10381;53.730;10.010;2022-08-06T01:41:52;13.07;;;11.88;;
20443;SDS011;10381;53.730;10.010;2022-08-06T01:45:54;12.20;;;11.13;;
20443;SDS011;10381;53.730;10.010;2022-08-06T01:49:58;18.02;;;10.88;;
20443;SDS011;10381;53.730;10.010;2022-08-06T01:54:03;11.65;;;10.45;;
20443;SDS011;10381;53.730;10.010;2022-08-06T01:58:05;11.63;;;10.38;;
20443;SDS011;10381;53.730;10.010;2022-08-06T02:02:08;16.08;;;9.88;;
20443;SDS011;10381;53.730;10.010;2022-08-06T02:06:14;10.48;;;9.43;;
20443;SDS011;10381;53.730;10.010;2022-08-06T02:10:22;10.88;;;9.23;;
20443;SDS011;10381;53.730;10.010;2022-08-06T02:14:25;11.73;;;8.77;;
20443;SDS011;10381;53.730;10.010;2022-08-06T02:18:29;9.48;;;8.60;;
20443;SDS011;10381;53.730;10.010;2022-08-06T02:22:36;16.67;;;8.35;;
20443;SDS011;10381;53.730;10.010;2022-08-06T02:26:38;10.05;;;8.88;;
20443;SDS011;10381;53.730;10.010;2022-08-06T02:30:42;16.98;;;7.93;;
20443;SDS011;10381;53.730;10.010;2022-08-06T02:34:44;8.77;;;7.57;;
20443;SDS011;10381;53.730;10.010;2022-08-06T02:38:45;15.95;;;8.73;;
20443;SDS011;10381;53.730;10.010;2022-08-06T02:42:58;8.75;;;7.95;;
20443;SDS011;10381;53.730;10.010;2022-08-06T02:51:38;12.68;;;8.52;;
20443;SDS011;10381;53.730;10.010;2022-08-06T02:55:45;11.40;;;7.35;;
20443;SDS011;10381;53.730;10.010;2022-08-06T02:59:49;11.48;;;7.65;;
20443;SDS011;10381;53.730;10.010;2022-08-06T03:03:53;8.70;;;6.45;;
20443;SDS011;10381;53.730;10.010;2022-08-06T03:07:57;10.88;;;7.43;;
20443;SDS011;10381;53.730;10.010;2022-08-06T03:11:58;10.43;;;7.55;;
20443;SDS011;10381;53.730;10.010;2022-08-06T03:16:00;8.40;;;7.10;;
20443;SDS011;10381;53.730;10.010;2022-08-06T03:20:03;12.15;;;7.40;;
20443;SDS011;10381;53.730;10.010;2022-08-06T03:24:05;13.32;;;7.22;;
20443;SDS011;10381;53.730;10.010;2022-08-06T03:28:07;13.32;;;6.65;;
20443;SDS011;10381;53.730;10.010;2022-08-06T03:32:10;8.68;;;7.45;;
20443;SDS011;10381;53.730;10.010;2022-08-06T03:36:12;9.15;;;7.20;;
20443;SDS011;10381;53.730;10.010;2022-08-06T03:40:13;8.65;;;7.75;;
20443;SDS011;10381;53.730;10.010;2022-08-06T03:44:17;12.63;;;7.93;;
20443;SDS011;10381;53.730;10.010;2022-08-06T03:48:18;8.50;;;7.70;;
20443;SDS011;10381;53.730;10.010;2022-08-06T03:52:24;10.80;;;7.75;;
20443;SDS011;10381;53.730;10.010;2022-08-06T03:56:28;14.40;;;7.55;;
20443;SDS011;10381;53.730;10.010;2022-08-06T04:00:31;10.65;;;7.43;;
20443;SDS011;10381;53.730;10.010;2022-08-06T04:04:34;12.85;;;8.10;;
20443;SDS011;10381;53.730;10.010;2022-08-06T04:08:37;7.93;;;7.10;;
20443;SDS011;10381;53.730;10.010;2022-08-06T04:12:39;26.35;;;10.70;;
20443;SDS011;10381;53.730;10.010;2022-08-06T04:16:41;18.70;;;15.63;;
20443;SDS011;10381;53.730;10.010;2022-08-06T04:20:43;21.85;;;19.75;;
20443;SDS011;10381;53.730;10.010;2022-08-06T04:24:47;26.65;;;24.15;;
20443;SDS011;10381;53.730;10.010;2022-08-06T04:28:50;27.85;;;25.40;;
20443;SDS011;10381;53.730;10.010;2022-08-06T04:32:52;32.25;;;28.92;;
20443;SDS011;10381;53.730;10.010;2022-08-06T04:36:53;33.00;;;30.00;;
20443;SDS011;10381;53.730;10.010;2022-08-06T04:40:55;31.63;;;28.55;;
20443;SDS011;10381;53.730;10.010;2022-08-06T04:44:56;23.90;;;21.80;;
20443;SDS011;10381;53.730;10.010;2022-08-06T04:48:56;20.27;;;18.58;;
20443;SDS011;10381;53.730;10.010;2022-08-06T04:53:15;19.70;;;17.95;;
20443;SDS011;10381;53.730;10.010;2022-08-06T04:57:17;16.42;;;15.00;;
20443;SDS011;10381;53.730;10.010;2022-08-06T05:01:17;13.73;;;12.32;;
20443;SDS011;10381;53.730;10.010;2022-08-06T05:05:19;11.93;;;10.83;;
20443;SDS011;10381;53.730;10.010;2022-08-06T05:09:23;10.13;;;9.25;;
20443;SDS011;10381;53.730;10.010;2022-08-06T05:13:26;8.77;;;8.10;;
20443;SDS011;10381;53.730;10.010;2022-08-06T05:17:33;10.43;;;9.43;;
20443;SDS011;10381;53.730;10.010;2022-08-06T05:21:38;9.48;;;8.57;;
20443;SDS011;10381;53.730;10.010;2022-08-06T05:25:40;8.73;;;8.07;;
20443;SDS011;10381;53.730;10.010;2022-08-06T05:29:41;9.75;;;8.95;;
20443;SDS011;10381;53.730;10.010;2022-08-06T05:33:41;9.23;;;8.40;;
20443;SDS011;10381;53.730;10.010;2022-08-06T05:37:42;9.30;;;8.43;;
20443;SDS011;10381;53.730;10.010;2022-08-06T05:41:42;8.75;;;8.15;;
20443;SDS011;10381;53.730;10.010;2022-08-06T05:45:43;7.70;;;7.05;;
20443;SDS011;10381;53.730;10.010;2022-08-06T05:49:50;8.45;;;6.93;;
20443;SDS011;10381;53.730;10.010;2022-08-06T05:53:57;8.90;;;7.03;;
20443;SDS011;10381;53.730;10.010;2022-08-06T05:58:05;9.00;;;8.10;;
20443;SDS011;10381;53.730;10.010;2022-08-06T06:02:11;7.85;;;7.25;;
20443;SDS011;10381;53.730;10.010;2022-08-06T06:06:13;14.35;;;8.15;;
20443;SDS011;10381;53.730;10.010;2022-08-06T06:10:14;9.48;;;8.77;;
20443;SDS011;10381;53.730;10.010;2022-08-06T06:19:00;9.60;;;8.63;;
20443;SDS011;10381;53.730;10.010;2022-08-06T06:23:20;8.55;;;7.95;;
20443;SDS011;10381;53.730;10.010;2022-08-06T06:45:48;8.80;;;8.10;;
20443;SDS011;10381;53.730;10.010;2022-08-06T06:49:58;7.03;;;6.57;;
20443;SDS011;10381;53.730;10.010;2022-08-06T06:54:02;8.23;;;7.43;;
20443;SDS011;10381;53.730;10.010;2022-08-06T06:58:10;8.25;;;7.70;;
20443;SDS011;10381;53.730;10.010;2022-08-06T07:02:14;9.13;;;8.27;;
20443;SDS011;10381;53.730;10.010;2022-08-06T07:06:18;7.45;;;6.85;;
20443;SDS011;10381;53.730;10.010;2022-08-06T07:10:20;7.20;;;6.70;;
20443;SDS011;10381;53.730;10.010;2022-08-06T07:14:23;8.20;;;7.53;;
20443;SDS011;10381;53.730;10.010;2022-08-06T07:18:24;6.65;;;6.22;;
20443;SDS011;10381;53.730;10.010;2022-08-06T07:22:26;6.63;;;6.13;;
20443;SDS011;10381;53.730;10.010;2022-08-06T07:26:28;11.75;;;6.20;;
20443;SDS011;10381;53.730;10.010;2022-08-06T07:30:30;7.53;;;6.93;;
20443;SDS011;10381;53.730;10.010;2022-08-06T07:34:32;7.43;;;6.70;;
20443;SDS011;10381;53.730;10.010;2022-08-06T07:38:33;7.80;;;7.30;;
20443;SDS011;10381;53.730;10.010;2022-08-06T07:42:36;7.43;;;6.72;;
20443;SDS011;10381;53.730;10.010;2022-08-06T07:46:39;7.40;;;6.80;;
20443;SDS011;10381;53.730;10.010;2022-08-06T07:50:48;9.13;;;6.60;;
20443;SDS011;10381;53.730;10.010;2022-08-06T07:54:51;6.90;;;6.30;;
20443;SDS011;10381;53.730;10.010;2022-08-06T07:58:54;6.50;;;6.07;;
20443;SDS011;10381;53.730;10.010;2022-08-06T08:02:55;7.70;;;7.05;;
20443;SDS011;10381;53.730;10.010;2022-08-06T08:07:14;6.82;;;6.32;;
20443;SDS011;10381;53.730;10.010;2022-08-06T08:11:15;6.00;;;5.50;;
20443;SDS011;10381;53.730;10.010;2022-08-06T08:15:17;11.57;;;5.47;;
20443;SDS011;10381;53.730;10.010;2022-08-06T08:19:23;7.97;;;6.57;;
20443;SDS011;10381;53.730;10.010;2022-08-06T08:23:32;5.65;;;5.20;;
20443;SDS011;10381;53.730;10.010;2022-08-06T08:27:33;6.90;;;4.78;;
20443;SDS011;10381;53.730;10.010;2022-08-06T08:31:35;6.28;;;5.65;;
20443;SDS011;10381;53.730;10.010;2022-08-06T08:35:35;5.53;;;5.10;;
20443;SDS011;10381;53.730;10.010;2022-08-06T08:39:36;5.85;;;5.45;;
20443;SDS011;10381;53.730;10.010;2022-08-06T08:43:38;7.00;;;6.40;;
20443;SDS011;10381;53.730;10.010;2022-08-06T08:47:44;7.30;;;6.50;;
20443;SDS011;10381;53.730;10.010;2022-08-06T08:51:49;6.28;;;5.88;;
20443;SDS011;10381;53.730;10.010;2022-08-06T08:55:51;6.75;;;6.15;;
20443;SDS011;10381;53.730;10.010;2022-08-06T08:59:52;7.07;;;6.10;;
20443;SDS011;10381;53.730;10.010;2022-08-06T09:03:52;10.57;;;5.85;;
20443;SDS011;10381;53.730;10.010;2022-08-06T09:07:53;4.80;;;4.50;;
20443;SDS011;10381;53.730;10.010;2022-08-06T09:11:54;5.10;;;4.70;;
20443;SDS011;10381;53.730;10.010;2022-08-06T09:15:56;4.82;;;3.90;;
20443;SDS011;10381;53.730;10.010;2022-08-06T09:19:57;4.70;;;4.30;;
20443;SDS011;10381;53.730;10.010;2022-08-06T09:23:58;4.70;;;4.30;;
20443;SDS011;10381;53.730;10.010;2022-08-06T09:27:58;8.20;;;3.80;;
20443;SDS011;10381;53.730;10.010;2022-08-06T09:31:59;6.50;;;5.90;;
20443;SDS011;10381;53.730;10.010;2022-08-06T09:36:07;6.60;;;6.00;;
20443;SDS011;10381;53.730;10.010;2022-08-06T09:40:14;5.95;;;5.55;;
20443;SDS011;10381;53.730;10.010;2022-08-06T09:44:16;6.07;;;4.88;;
20443;SDS011;10381;53.730;10.010;2022-08-06T09:48:17;3.87;;;3.57;;
20443;SDS011;10381;53.730;10.010;2022-08-06T09:52:17;3.73;;;3.40;;
20443;SDS011;10381;53.730;10.010;2022-08-06T09:56:18;4.10;;;3.78;;
20443;SDS011;10381;53.730;10.010;2022-08-06T10:00:28;8.55;;;3.67;;
20443;SDS011;10381;53.730;10.010;2022-08-06T10:04:31;5.47;;;4.07;;
20443;SDS011;10381;53.730;10.010;2022-08-06T10:08:31;5.05;;;4.43;;
20443;SDS011;10381;53.730;10.010;2022-08-06T10:12:31;5.47;;;4.65;;
20443;SDS011;10381;53.730;10.010;2022-08-06T10:16:32;5.45;;;4.28;;
20443;SDS011;10381;53.730;10.010;2022-08-06T10:20:33;4.10;;;3.80;;
20443;SDS011;10381;53.730;10.010;2022-08-06T10:24:37;4.63;;;4.22;;
20443;SDS011;10381;53.730;10.010;2022-08-06T10:28:41;9.52;;;5.10;;
20443;SDS011;10381;53.730;10.010;2022-08-06T10:32:56;5.65;;;5.15;;
20443;SDS011;10381;53.730;10.010;2022-08-06T10:37:02;6.57;;;4.70;;
20443;SDS011;10381;53.730;10.010;2022-08-06T10:41:09;6.40;;;5.00;;
20443;SDS011;10381;53.730;10.010;2022-08-06T10:45:10;6.50;;;4.75;;
20443;SDS011;10381;53.730;10.010;2022-08-06T10:49:12;5.38;;;4.85;;
20443;SDS011;10381;53.730;10.010;2022-08-06T10:53:14;5.45;;;4.95;;
20443;SDS011;10381;53.730;10.010;2022-08-06T10:57:16;6.93;;;5.05;;
20443;SDS011;10381;53.730;10.010;2022-08-06T11:01:36;5.65;;;5.03;;
20443;SDS011;10381;53.730;10.010;2022-08-06T11:05:56;6.45;;;5.00;;
20443;SDS011;10381;53.730;10.010;2022-08-06T11:14:34;5.70;;;4.78;;
20443;SDS011;10381;53.730;10.010;2022-08-06T11:18:36;5.60;;;5.05;;
20443;SDS011;10381;53.730;10.010;2022-08-06T11:22:58;5.38;;;4.88;;
20443;SDS011;10381;53.730;10.010;2022-08-06T11:26:59;5.97;;;5.47;;
20443;SDS011;10381;53.730;10.010;2022-08-06T11:31:00;7.00;;;5.47;;
20443;SDS011;10381;53.730;10.010;2022-08-06T11:35:37;5.50;;;4.95;;
20443;SDS011;10381;53.730;10.010;2022-08-06T11:40:03;7.28;;;5.53;;
20443;SDS011;10381;53.730;10.010;2022-08-06T11:44:05;5.63;;;5.13;;
20443;SDS011;10381;53.730;10.010;2022-08-06T11:48:06;8.25;;;5.35;;
20443;SDS011;10381;53.730;10.010;2022-08-06T11:52:07;10.63;;;6.47;;
20443;SDS011;10381;53.730;10.010;2022-08-06T11:56:07;5.38;;;4.72;;
20443;SDS011;10381;53.730;10.010;2022-08-06T12:00:09;6.65;;;4.80;;
20443;SDS011;10381;53.730;10.010;2022-08-06T12:08:37;8.10;;;4.50;;
20443;SDS011;10381;53.730;10.010;2022-08-06T12:12:44;7.25;;;4.88;;
20443;SDS011;10381;53.730;10.010;2022-08-06T12:16:46;5.78;;;4.72;;
20443;SDS011;10381;53.730;10.010;2022-08-06T12:20:47;5.85;;;5.20;;
20443;SDS011;10381;53.730;10.010;2022-08-06T12:24:50;5.68;;;4.72;;
20443;SDS011;10381;53.730;10.010;2022-08-06T12:28:53;5.97;;;5.38;;
20443;SDS011;10381;53.730;10.010;2022-08-06T12:33:00;7.70;;;5.83;;
20443;SDS011;10381;53.730;10.010;2022-08-06T12:37:02;5.93;;;5.35;;
20443;SDS011;10381;53.730;10.010;2022-08-06T12:45:08;5.63;;;5.03;;
20443;SDS011;10381;53.730;10.010;2022-08-06T12:49:09;5.15;;;4.65;;
20443;SDS011;10381;53.730;10.010;2022-08-06T12:53:10;7.68;;;5.53;;
20443;SDS011;10381;53.730;10.010;2022-08-06T12:57:26;6.30;;;5.70;;
20443;SDS011;10381;53.730;10.010;2022-08-06T13:01:28;8.38;;;5.28;;
20443;SDS011;10381;53.730;10.010;2022-08-06T13:05:29;5.78;;;5.18;;
20443;SDS011;10381;53.730;10.010;2022-08-06T13:09:31;7.45;;;5.78;;
20443;SDS011;10381;53.730;10.010;2022-08-06T13:13:38;7.22;;;6.15;;
20443;SDS011;10381;53.730;10.010;2022-08-06T13:17:41;13.68;;;5.85;;
20443;SDS011;10381;53.730;10.010;2022-08-06T13:21:42;9.40;;;6.28;;
20443;SDS011;10381;53.730;10.010;2022-08-06T13:25:48;7.05;;;5.80;;
20443;SDS011;10381;53.730;10.010;2022-08-06T13:29:58;6.72;;;5.60;;
20443;SDS011;10381;53.730;10.010;2022-08-06T13:34:03;9.13;;;5.68;;
20443;SDS011;10381;53.730;10.010;2022-08-06T13:38:05;7.43;;;5.70;;
20443;SDS011;10381;53.730;10.010;2022-08-06T13:42:09;9.17;;;5.47;;
20443;SDS011;10381;53.730;10.010;2022-08-06T13:46:12;9.88;;;6.35;;
20443;SDS011;10381;53.730;10.010;2022-08-06T13:50:16;8.32;;;5.70;;
20443;SDS011;10381;53.730;10.010;2022-08-06T13:54:17;8.32;;;5.38;;
20443;SDS011;10381;53.730;10.010;2022-08-06T13:58:17;6.80;;;5.82;;
20443;SDS011;10381;53.730;10.010;2022-08-06T14:02:18;9.90;;;6.53;;
20443;SDS011;10381;53.730;10.010;2022-08-06T14:06:18;21.30;;;6.67;;
20443;SDS011;10381;53.730;10.010;2022-08-06T14:10:19;10.93;;;7.10;;
20443;SDS011;10381;53.730;10.010;2022-08-06T14:14:19;9.40;;;6.97;;
20443;SDS011;10381;53.730;10.010;2022-08-06T14:18:20;8.27;;;6.80;;
20443;SDS011;10381;53.730;10.010;2022-08-06T14:22:22;11.70;;;6.65;;
20443;SDS011;10381;53.730;10.010;2022-08-06T14:26:22;9.18;;;6.75;;
20443;SDS011;10381;53.730;10.010;2022-08-06T14:30:23;8.53;;;6.80;;
20443;SDS011;10381;53.730;10.010;2022-08-06T14:34:23;11.05;;;7.25;;
20443;SDS011;10381;53.730;10.010;2022-08-06T14:38:24;11.68;;;6.93;;
20443;SDS011;10381;53.730;10.010;2022-08-06T14:42:24;8.80;;;7.00;;
20443;SDS011;10381;53.730;10.010;2022-08-06T14:46:43;6.95;;;6.22;;
20443;SDS011;10381;53.730;10.010;2022-08-06T14:50:43;10.17;;;6.33;;
20443;SDS011;10381;53.730;10.010;2022-08-06T14:54:44;11.45;;;6.78;;
20443;SDS011;10381;53.730;10.010;2022-08-06T14:58:44;8.43;;;6.27;;
20443;SDS011;10381;53.730;10.010;2022-08-06T15:02:44;10.67;;;6.40;;
20443;SDS011;10381;53.730;10.010;2022-08-06T15:06:45;6.67;;;5.97;;
20443;SDS011;10381;53.730;10.010;2022-08-06T15:10:45;11.57;;;6.00;;
20443;SDS011;10381;53.730;10.010;2022-08-06T15:14:45;7.17;;;5.90;;
20443;SDS011;10381;53.730;10.010;2022-08-06T15:18:46;11.90;;;6.23;;
20443;SDS011;10381;53.730;10.010;2022-08-06T15:22:46;9.13;;;6.43;;
20443;SDS011;10381;53.730;10.010;2022-08-06T15:26:46;8.23;;;6.20;;
20443;SDS011;10381;53.730;10.010;2022-08-06T15:30:47;7.30;;;5.38;;
20443;SDS011;10381;53.730;10.010;2022-08-06T15:34:47;9.20;;;6.10;;
20443;SDS011;10381;53.730;10.010;2022-08-06T15:38:47;7.63;;;5.37;;
20443;SDS011;10381;53.730;10.010;2022-08-06T15:42:47;19.30;;;5.27;;
20443;SDS011;10381;53.730;10.010;2022-08-06T15:46:48;7.60;;;5.07;;
20443;SDS011;10381;53.730;10.010;2022-08-06T15:50:48;9.90;;;5.17;;
20443;SDS011;10381;53.730;10.010;2022-08-06T15:54:48;8.88;;;5.50;;
20443;SDS011;10381;53.730;10.010;2022-08-06T15:58:49;8.77;;;5.10;;
20443;SDS011;10381;53.730;10.010;2022-08-06T16:02:49;12.30;;;5.53;;
20443;SDS011;10381;53.730;10.010;2022-08-06T16:06:49;7.83;;;5.60;;
20443;SDS011;10381;53.730;10.010;2022-08-06T16:10:50;8.27;;;5.03;;
20443;SDS011;10381;53.730;10.010;2022-08-06T16:14:50;6.93;;;5.53;;
20443;SDS011;10381;53.730;10.010;2022-08-06T16:18:51;7.75;;;5.65;;
20443;SDS011;10381;53.730;10.010;2022-08-06T16:22:52;6.73;;;5.47;;
20443;SDS011;10381;53.730;10.010;2022-08-06T16:26:52;6.32;;;5.15;;
20443;SDS011;10381;53.730;10.010;2022-08-06T16:30:53;8.85;;;5.63;;
20443;SDS011;10381;53.730;10.010;2022-08-06T16:34:53;9.03;;;5.80;;
20443;SDS011;10381;53.730;10.010;2022-08-06T16:38:59;9.05;;;5.35;;
20443;SDS011;10381;53.730;10.010;2022-08-06T16:42:59;8.75;;;5.20;;
20443;SDS011;10381;53.730;10.010;2022-08-06T16:46:59;6.47;;;5.30;;
20443;SDS011;10381;53.730;10.010;2022-08-06T16:51:00;13.75;;;5.25;;
20443;SDS011;10381;53.730;10.010;2022-08-06T16:55:00;5.57;;;4.50;;
20443;SDS011;10381;53.730;10.010;2022-08-06T16:59:00;7.40;;;5.40;;
20443;SDS011;10381;53.730;10.010;2022-08-06T17:03:02;8.18;;;5.55;;
20443;SDS011;10381;53.730;10.010;2022-08-06T17:07:03;7.50;;;5.65;;
20443;SDS011;10381;53.730;10.010;2022-08-06T17:11:03;8.50;;;5.88;;
20443;SDS011;10381;53.730;10.010;2022-08-06T17:15:04;6.30;;;4.88;;
20443;SDS011;10381;53.730;10.010;2022-08-06T17:19:05;7.15;;;5.60;;
20443;SDS011;10381;53.730;10.010;2022-08-06T17:23:06;7.43;;;5.63;;
20443;SDS011;10381;53.730;10.010;2022-08-06T17:27:06;8.73;;;5.43;;
20443;SDS011;10381;53.730;10.010;2022-08-06T17:31:08;6.55;;;5.90;;
20443;SDS011;10381;53.730;10.010;2022-08-06T17:35:09;6.07;;;5.13;;
20443;SDS011;10381;53.730;10.010;2022-08-06T17:39:11;10.40;;;5.20;;
20443;SDS011;10381;53.730;10.010;2022-08-06T17:43:11;5.93;;;4.90;;
20443;SDS011;10381;53.730;10.010;2022-08-06T17:47:12;12.87;;;5.77;;
20443;SDS011;10381;53.730;10.010;2022-08-06T17:51:12;6.70;;;5.45;;
20443;SDS011;10381;53.730;10.010;2022-08-06T17:55:12;7.40;;;5.43;;
20443;SDS011;10381;53.730;10.010;2022-08-06T17:59:13;10.10;;;5.70;;
20443;SDS011;10381;53.730;10.010;2022-08-06T18:03:13;8.60;;;5.50;;
20443;SDS011;10381;53.730;10.010;2022-08-06T18:07:13;7.72;;;5.65;;
20443;SDS011;10381;53.730;10.010;2022-08-06T18:11:14;8.85;;;5.85;;
20443;SDS011;10381;53.730;10.010;2022-08-06T18:15:16;12.40;;;6.00;;
20443;SDS011;10381;53.730;10.010;2022-08-06T18:19:17;11.95;;;6.18;;
20443;SDS011;10381;53.730;10.010;2022-08-06T18:23:17;8.80;;;5.53;;
20443;SDS011;10381;53.730;10.010;2022-08-06T18:27:20;8.20;;;5.80;;
20443;SDS011;10381;53.730;10.010;2022-08-06T18:31:22;6.78;;;4.90;;
20443;SDS011;10381;53.730;10.010;2022-08-06T18:35:22;10.07;;;5.90;;
20443;SDS011;10381;53.730;10.010;2022-08-06T18:39:23;12.27;;;5.70;;
20443;SDS011;10381;53.730;10.010;2022-08-06T18:43:23;7.43;;;5.47;;
20443;SDS011;10381;53.730;10.010;2022-08-06T18:47:23;14.27;;;5.80;;
20443;SDS011;10381;53.730;10.010;2022-08-06T18:51:23;8.60;;;6.00;;
20443;SDS011;10381;53.730;10.010;2022-08-06T18:55:24;8.43;;;5.13;;
20443;SDS011;10381;53.730;10.010;2022-08-06T18:59:24;9.23;;;5.28;;
20443;SDS011;10381;53.730;10.010;2022-08-06T19:03:25;9.02;;;5.85;;
20443;SDS011;10381;53.730;10.010;2022-08-06T19:07:26;8.70;;;6.15;;
20443;SDS011;10381;53.730;10.010;2022-08-06T19:11:26;8.93;;;5.63;;
20443;SDS011;10381;53.730;10.010;2022-08-06T19:15:27;9.18;;;5.63;;
20443;SDS011;10381;53.730;10.010;2022-08-06T19:19:28;11.00;;;5.57;;
20443;SDS011;10381;53.730;10.010;2022-08-06T19:23:28;8.00;;;5.47;;
20443;SDS011;10381;53.730;10.010;2022-08-06T19:27:28;7.13;;;4.77;;
20443;SDS011;10381;53.730;10.010;2022-08-06T19:31:29;11.80;;;5.30;;
20443;SDS011;10381;53.730;10.010;2022-08-06T19:35:30;11.85;;;5.32;;
20443;SDS011;10381;53.730;10.010;2022-08-06T19:39:30;8.73;;;4.97;;
20443;SDS011;10381;53.730;10.010;2022-08-06T19:43:30;8.97;;;5.33;;
20443;SDS011;10381;53.730;10.010;2022-08-06T19:47:31;9.05;;;5.85;;
20443;SDS011;10381;53.730;10.010;2022-08-06T19:51:31;8.52;;;4.70;;
20443;SDS011;10381;53.730;10.010;2022-08-06T19:55:33;9.50;;;4.60;;
20443;SDS011;10381;53.730;10.010;2022-08-06T19:59:34;6.32;;;4.40;;
20443;SDS011;10381;53.730;10.010;2022-08-06T20:07:39;9.38;;;5.32;;
20443;SDS011;10381;53.730;10.010;2022-08-06T20:11:39;10.73;;;6.93;;
20443;SDS011;10381;53.730;10.010;2022-08-06T20:15:39;13.88;;;6.95;;
20443;SDS011;10381;53.730;10.010;2022-08-06T20:19:40;10.40;;;6.60;;
20443;SDS011;10381;53.730;10.010;2022-08-06T20:23:40;11.80;;;7.23;;
20443;SDS011;10381;53.730;10.010;2022-08-06T20:27:40;9.63;;;7.05;;
20443;SDS011;10381;53.730;10.010;2022-08-06T20:31:42;10.88;;;7.55;;
20443;SDS011;10381;53.730;10.010;2022-08-06T20:35:42;8.90;;;7.20;;
20443;SDS011;10381;53.730;10.010;2022-08-06T20:39:43;12.50;;;7.82;;
20443;SDS011;10381;53.730;10.010;2022-08-06T20:43:43;18.85;;;10.07;;
20443;SDS011;10381;53.730;10.010;2022-08-06T20:47:44;22.10;;;10.47;;
20443;SDS011;10381;53.730;10.010;2022-08-06T20:51:48;16.30;;;9.35;;
20443;SDS011;10381;53.730;10.010;2022-08-06T20:55:48;12.73;;;9.60;;
20443;SDS011;10381;53.730;10.010;2022-08-06T20:59:48;13.77;;;8.52;;
20443;SDS011;10381;53.730;10.010;2022-08-06T21:03:49;12.52;;;8.70;;
20443;SDS011;10381;53.730;10.010;2022-08-06T21:07:50;10.65;;;8.35;;
20443;SDS011;10381;53.730;10.010;2022-08-06T21:11:52;15.57;;;8.27;;
20443;SDS011;10381;53.730;10.010;2022-08-06T21:15:52;13.13;;;8.63;;
20443;SDS011;10381;53.730;10.010;2022-08-06T21:19:53;11.88;;;8.63;;
20443;SDS011;10381;53.730;10.010;2022-08-06T21:23:53;13.10;;;8.70;;
20443;SDS011;10381;53.730;10.010;2022-08-06T21:27:53;12.77;;;9.73;;
20443;SDS011;10381;53.730;10.010;2022-08-06T21:31:54;14.93;;;11.93;;
20443;SDS011;10381;53.730;10.010;2022-08-06T21:35:55;14.80;;;11.15;;
20443;SDS011;10381;53.730;10.010;2022-08-06T21:39:56;15.80;;;11.73;;
20443;SDS011;10381;53.730;10.010;2022-08-06T21:43:57;19.92;;;13.50;;
20443;SDS011;10381;53.730;10.010;2022-08-06T21:48:00;13.93;;;10.77;;
20443;SDS011;10381;53.730;10.010;2022-08-06T21:52:01;15.03;;;11.70;;
20443;SDS011;10381;53.730;10.010;2022-08-06T21:56:01;13.20;;;11.07;;
20443;SDS011;10381;53.730;10.010;2022-08-06T22:00:03;14.32;;;11.30;;
20443;SDS011;10381;53.730;10.010;2022-08-06T22:04:08;15.52;;;10.38;;
20443;SDS011;10381;53.730;10.010;2022-08-06T22:08:08;15.87;;;11.77;;
20443;SDS011;10381;53.730;10.010;2022-08-06T22:12:09;17.45;;;11.68;;
20443;SDS011;10381;53.730;10.010;2022-08-06T22:16:09;14.10;;;11.93;;
20443;SDS011;10381;53.730;10.010;2022-08-06T22:20:11;16.67;;;10.90;;
20443;SDS011;10381;53.730;10.010;2022-08-06T22:24:12;15.65;;;11.90;;
20443;SDS011;10381;53.730;10.010;2022-08-06T22:28:13;15.80;;;12.70;;
20443;SDS011;10381;53.730;10.010;2022-08-06T22:32:13;14.38;;;12.70;;
20443;SDS011;10381;53.730;10.010;2022-08-06T22:36:14;13.32;;;11.82;;
20443;SDS011;10381;53.730;10.010;2022-08-06T22:40:14;15.17;;;13.13;;
20443;SDS011;10381;53.730;10.010;2022-08-06T22:44:14;16.20;;;13.75;;
20443;SDS011;10381;53.730;10.010;2022-08-06T22:48:15;21.00;;;14.80;;
20443;SDS011;10381;53.730;10.010;2022-08-06T22:52:16;18.02;;;12.73;;
20443;SDS011;10381;53.730;10.010;2022-08-06T22:56:16;17.93;;;13.83;;
20443;SDS011;10381;53.730;10.010;2022-08-06T23:00:17;18.00;;;14.17;;
20443;SDS011;10381;53.730;10.010;2022-08-06T23:04:17;17.27;;;13.88;;
20443;SDS011;10381;53.730;10.010;2022-08-06T23:08:17;19.00;;;14.37;;
20443;SDS011;10381;53.730;10.010;2022-08-06T23:12:19;22.98;;;14.75;;
20443;SDS011;10381;53.730;10.010;2022-08-06T23:16:21;20.33;;;14.55;;
20443;SDS011;10381;53.730;10.010;2022-08-06T23:20:21;20.80;;;15.50;;
20443;SDS011;10381;53.730;10.010;2022-08-06T23:24:21;22.08;;;14.70;;
20443;SDS011;10381;53.730;10.010;2022-08-06T23:28:22;22.33;;;14.77;;
20443;SDS011;10381;53.730;10.010;2022-08-06T23:32:22;25.17;;;14.87;;
20443;SDS011;10381;53.730;10.010;2022-08-06T23:36:22;24.58;;;14.60;;
20443;SDS011;10381;53.730;10.010;2022-08-06T23:40:23;15.83;;;12.80;;
20443;SDS011;10381;53.730;10.010;2022-08-06T23:44:23;13.73;;;12.30;;
20443;SDS011;10381;53.730;10.010;2022-08-06T23:48:23;22.17;;;15.68;;
20443;SDS011;10381;53.730;10.010;2022-08-06T23:52:24;15.83;;;13.37;;
20443;SDS011;10381;53.730;10.010;2022-08-06T23:56:24;22.83;;;15.70;;
